sensor_id;sensor_type;location;lat;lon;timestamp;temperature;humidity
38514;DHT22;24282;48.400;10.808;2022-09-27T00:00:30;12.10;75.00
38514;DHT22;24282;48.400;10.808;2022-09-27T00:02:56;12.10;75.60
38514;DHT22;24282;48.400;10.808;2022-09-27T00:05:22;12.00;75.60
38514;DHT22;24282;48.400;10.808;2022-09-27T00:07:48;12.00;75.70
38514;DHT22;24282;48.400;10.808;2022-09-27T00:10:14;12.00;75.20
38514;DHT22;24282;48.400;10.808;2022-09-27T00:12:39;12.00;75.40
38514;DHT22;24282;48.400;10.808;2022-09-27T00:15:06;12.00;75.60
38514;DHT22;24282;48.400;10.808;2022-09-27T00:17:33;12.00;75.40
38514;DHT22;24282;48.400;10.808;2022-09-27T00:19:59;12.00;75.20
38514;DHT22;24282;48.400;10.808;2022-09-27T00:22:25;12.00;76.10
38514;DHT22;24282;48.400;10.808;2022-09-27T00:24:51;12.00;77.00
38514;DHT22;24282;48.400;10.808;2022-09-27T00:27:18;11.90;77.60
38514;DHT22;24282;48.400;10.808;2022-09-27T00:29:44;11.90;78.70
38514;DHT22;24282;48.400;10.808;2022-09-27T00:32:11;11.90;79.60
38514;DHT22;24282;48.400;10.808;2022-09-27T00:34:37;11.90;79.70
38514;DHT22;24282;48.400;10.808;2022-09-27T00:37:03;11.90;78.90
38514;DHT22;24282;48.400;10.808;2022-09-27T00:39:29;11.90;79.30
38514;DHT22;24282;48.400;10.808;2022-09-27T00:41:55;11.80;79.60
38514;DHT22;24282;48.400;10.808;2022-09-27T00:47:11;11.80;80.40
38514;DHT22;24282;48.400;10.808;2022-09-27T00:52:32;11.70;80.90
38514;DHT22;24282;48.400;10.808;2022-09-27T00:55:10;11.70;80.70
38514;DHT22;24282;48.400;10.808;2022-09-27T00:57:36;11.70;80.80
38514;DHT22;24282;48.400;10.808;2022-09-27T01:00:08;11.70;81.10
38514;DHT22;24282;48.400;10.808;2022-09-27T01:02:37;11.60;81.20
38514;DHT22;24282;48.400;10.808;2022-09-27T01:05:05;11.60;81.80
38514;DHT22;24282;48.400;10.808;2022-09-27T01:07:33;11.60;81.90
38514;DHT22;24282;48.400;10.808;2022-09-27T01:09:59;11.60;82.30
38514;DHT22;24282;48.400;10.808;2022-09-27T01:12:56;11.70;82.20
38514;DHT22;24282;48.400;10.808;2022-09-27T01:18:24;11.60;81.70
38514;DHT22;24282;48.400;10.808;2022-09-27T01:24:21;11.50;81.50
38514;DHT22;24282;48.400;10.808;2022-09-27T01:30:20;11.60;81.60
38514;DHT22;24282;48.400;10.808;2022-09-27T01:44:14;11.40;81.90
38514;DHT22;24282;48.400;10.808;2022-09-27T01:46:55;11.40;81.90
38514;DHT22;24282;48.400;10.808;2022-09-27T01:52:23;11.30;81.80
38514;DHT22;24282;48.400;10.808;2022-09-27T01:54:55;11.30;82.30
38514;DHT22;24282;48.400;10.808;2022-09-27T01:58:05;11.30;83.00
38514;DHT22;24282;48.400;10.808;2022-09-27T02:00:34;11.30;82.70
38514;DHT22;24282;48.400;10.808;2022-09-27T02:03:06;11.20;82.90
38514;DHT22;24282;48.400;10.808;2022-09-27T02:05:39;11.20;83.00
38514;DHT22;24282;48.400;10.808;2022-09-27T02:08:52;11.20;83.50
38514;DHT22;24282;48.400;10.808;2022-09-27T02:11:40;11.10;83.80
38514;DHT22;24282;48.400;10.808;2022-09-27T02:15:16;11.20;84.10
38514;DHT22;24282;48.400;10.808;2022-09-27T02:17:22;11.20;83.70
38514;DHT22;24282;48.400;10.808;2022-09-27T02:22:40;11.20;83.90
38514;DHT22;24282;48.400;10.808;2022-09-27T02:25:19;11.20;83.90
38514;DHT22;24282;48.400;10.808;2022-09-27T02:30:35;11.20;84.30
38514;DHT22;24282;48.400;10.808;2022-09-27T02:33:14;11.10;83.80
38514;DHT22;24282;48.400;10.808;2022-09-27T02:35:41;11.20;84.10
38514;DHT22;24282;48.400;10.808;2022-09-27T02:38:07;11.10;84.20
38514;DHT22;24282;48.400;10.808;2022-09-27T02:40:35;11.10;84.60
38514;DHT22;24282;48.400;10.808;2022-09-27T02:43:03;11.10;84.80
38514;DHT22;24282;48.400;10.808;2022-09-27T02:53:58;11.00;84.60
38514;DHT22;24282;48.400;10.808;2022-09-27T02:56:59;11.00;84.70
38514;DHT22;24282;48.400;10.808;2022-09-27T02:59:55;11.00;84.70
38514;DHT22;24282;48.400;10.808;2022-09-27T03:03:03;11.10;84.20
38514;DHT22;24282;48.400;10.808;2022-09-27T03:05:42;11.00;84.40
38514;DHT22;24282;48.400;10.808;2022-09-27T03:08:09;11.00;84.40
38514;DHT22;24282;48.400;10.808;2022-09-27T03:10:37;11.00;84.90
38514;DHT22;24282;48.400;10.808;2022-09-27T03:13:03;10.90;84.90
38514;DHT22;24282;48.400;10.808;2022-09-27T03:15:30;10.90;85.10
38514;DHT22;24282;48.400;10.808;2022-09-27T03:17:59;10.90;85.30
38514;DHT22;24282;48.400;10.808;2022-09-27T03:20:44;11.00;84.60
38514;DHT22;24282;48.400;10.808;2022-09-27T03:23:11;11.00;84.80
38514;DHT22;24282;48.400;10.808;2022-09-27T03:25:37;11.00;84.80
38514;DHT22;24282;48.400;10.808;2022-09-27T03:28:03;10.90;84.70
38514;DHT22;24282;48.400;10.808;2022-09-27T03:30:30;11.00;85.00
38514;DHT22;24282;48.400;10.808;2022-09-27T03:32:56;11.00;84.90
38514;DHT22;24282;48.400;10.808;2022-09-27T03:35:41;11.00;84.60
38514;DHT22;24282;48.400;10.808;2022-09-27T03:38:08;11.00;85.00
38514;DHT22;24282;48.400;10.808;2022-09-27T03:40:35;11.00;85.30
38514;DHT22;24282;48.400;10.808;2022-09-27T03:43:01;10.90;85.40
38514;DHT22;24282;48.400;10.808;2022-09-27T03:45:28;11.00;85.30
38514;DHT22;24282;48.400;10.808;2022-09-27T03:47:56;10.90;85.50
38514;DHT22;24282;48.400;10.808;2022-09-27T03:50:21;11.00;85.00
38514;DHT22;24282;48.400;10.808;2022-09-27T03:52:47;11.00;84.70
38514;DHT22;24282;48.400;10.808;2022-09-27T03:55:13;11.00;84.30
38514;DHT22;24282;48.400;10.808;2022-09-27T03:57:43;11.00;84.60
38514;DHT22;24282;48.400;10.808;2022-09-27T04:00:10;10.90;84.90
38514;DHT22;24282;48.400;10.808;2022-09-27T04:02:43;10.90;85.10
38514;DHT22;24282;48.400;10.808;2022-09-27T04:05:22;10.90;85.00
38514;DHT22;24282;48.400;10.808;2022-09-27T04:07:49;10.90;85.20
38514;DHT22;24282;48.400;10.808;2022-09-27T04:10:17;10.90;84.90
38514;DHT22;24282;48.400;10.808;2022-09-27T04:12:43;10.90;84.60
38514;DHT22;24282;48.400;10.808;2022-09-27T04:15:10;10.90;84.60
38514;DHT22;24282;48.400;10.808;2022-09-27T04:17:49;11.00;84.60
38514;DHT22;24282;48.400;10.808;2022-09-27T04:20:35;11.00;84.80
38514;DHT22;24282;48.400;10.808;2022-09-27T04:23:11;11.00;84.30
38514;DHT22;24282;48.400;10.808;2022-09-27T04:25:40;11.00;84.10
38514;DHT22;24282;48.400;10.808;2022-09-27T04:28:14;11.00;84.10
38514;DHT22;24282;48.400;10.808;2022-09-27T04:30:40;10.90;84.40
38514;DHT22;24282;48.400;10.808;2022-09-27T04:33:12;10.90;84.40
38514;DHT22;24282;48.400;10.808;2022-09-27T04:35:47;10.90;84.80
38514;DHT22;24282;48.400;10.808;2022-09-27T04:38:36;10.90;85.00
38514;DHT22;24282;48.400;10.808;2022-09-27T04:41:05;10.90;84.50
38514;DHT22;24282;48.400;10.808;2022-09-27T04:43:35;10.90;84.70
38514;DHT22;24282;48.400;10.808;2022-09-27T04:46:02;10.90;84.90
38514;DHT22;24282;48.400;10.808;2022-09-27T04:48:28;10.90;85.20
38514;DHT22;24282;48.400;10.808;2022-09-27T04:51:01;10.80;85.40
38514;DHT22;24282;48.400;10.808;2022-09-27T04:53:28;10.80;85.40
38514;DHT22;24282;48.400;10.808;2022-09-27T04:55:58;10.90;85.00
38514;DHT22;24282;48.400;10.808;2022-09-27T04:58:27;11.00;84.00
38514;DHT22;24282;48.400;10.808;2022-09-27T05:00:54;10.90;84.30
38514;DHT22;24282;48.400;10.808;2022-09-27T05:03:45;10.90;84.70
38514;DHT22;24282;48.400;10.808;2022-09-27T05:06:12;11.00;83.90
38514;DHT22;24282;48.400;10.808;2022-09-27T05:08:38;11.00;83.00
38514;DHT22;24282;48.400;10.808;2022-09-27T05:11:30;11.00;83.00
38514;DHT22;24282;48.400;10.808;2022-09-27T05:14:14;11.00;82.00
38514;DHT22;24282;48.400;10.808;2022-09-27T05:16:53;11.00;81.90
38514;DHT22;24282;48.400;10.808;2022-09-27T05:19:34;10.90;82.20
38514;DHT22;24282;48.400;10.808;2022-09-27T05:22:10;10.90;82.40
38514;DHT22;24282;48.400;10.808;2022-09-27T05:24:36;10.90;82.80
38514;DHT22;24282;48.400;10.808;2022-09-27T05:27:04;10.90;82.70
38514;DHT22;24282;48.400;10.808;2022-09-27T05:29:33;10.80;83.00
38514;DHT22;24282;48.400;10.808;2022-09-27T05:32:26;10.80;83.00
38514;DHT22;24282;48.400;10.808;2022-09-27T05:35:15;10.70;83.20
38514;DHT22;24282;48.400;10.808;2022-09-27T05:37:42;10.70;83.00
38514;DHT22;24282;48.400;10.808;2022-09-27T05:40:08;10.70;82.90
38514;DHT22;24282;48.400;10.808;2022-09-27T05:42:36;10.70;82.80
38514;DHT22;24282;48.400;10.808;2022-09-27T05:45:04;10.70;82.40
38514;DHT22;24282;48.400;10.808;2022-09-27T05:47:33;10.70;82.30
38514;DHT22;24282;48.400;10.808;2022-09-27T05:49:59;10.60;82.70
38514;DHT22;24282;48.400;10.808;2022-09-27T05:52:25;10.60;82.80
38514;DHT22;24282;48.400;10.808;2022-09-27T05:54:52;10.50;82.70
38514;DHT22;24282;48.400;10.808;2022-09-27T05:57:17;10.50;82.90
38514;DHT22;24282;48.400;10.808;2022-09-27T05:59:46;10.60;82.40
38514;DHT22;24282;48.400;10.808;2022-09-27T06:02:21;10.60;82.20
38514;DHT22;24282;48.400;10.808;2022-09-27T06:05:22;10.70;81.10
38514;DHT22;24282;48.400;10.808;2022-09-27T06:08:15;10.70;81.50
38514;DHT22;24282;48.400;10.808;2022-09-27T06:10:45;10.70;81.20
38514;DHT22;24282;48.400;10.808;2022-09-27T06:13:14;10.70;80.10
38514;DHT22;24282;48.400;10.808;2022-09-27T06:15:43;10.70;80.10
38514;DHT22;24282;48.400;10.808;2022-09-27T06:18:15;10.70;80.60
38514;DHT22;24282;48.400;10.808;2022-09-27T06:20:44;10.70;81.30
38514;DHT22;24282;48.400;10.808;2022-09-27T06:23:13;10.70;81.20
38514;DHT22;24282;48.400;10.808;2022-09-27T06:25:40;10.70;81.00
38514;DHT22;24282;48.400;10.808;2022-09-27T06:28:21;10.70;80.60
38514;DHT22;24282;48.400;10.808;2022-09-27T06:30:49;10.60;81.20
38514;DHT22;24282;48.400;10.808;2022-09-27T06:33:22;10.60;81.40
38514;DHT22;24282;48.400;10.808;2022-09-27T06:35:51;10.60;81.70
38514;DHT22;24282;48.400;10.808;2022-09-27T06:38:18;10.70;82.20
38514;DHT22;24282;48.400;10.808;2022-09-27T06:40:52;10.70;81.40
38514;DHT22;24282;48.400;10.808;2022-09-27T06:43:29;10.80;80.20
38514;DHT22;24282;48.400;10.808;2022-09-27T06:46:30;10.80;80.80
38514;DHT22;24282;48.400;10.808;2022-09-27T06:49:21;10.90;80.20
38514;DHT22;24282;48.400;10.808;2022-09-27T06:51:56;10.90;80.80
38514;DHT22;24282;48.400;10.808;2022-09-27T06:54:22;10.90;81.50
38514;DHT22;24282;48.400;10.808;2022-09-27T06:56:48;10.90;81.80
38514;DHT22;24282;48.400;10.808;2022-09-27T06:59:14;10.90;82.10
38514;DHT22;24282;48.400;10.808;2022-09-27T07:02:17;10.90;81.30
38514;DHT22;24282;48.400;10.808;2022-09-27T07:05:02;10.90;81.00
38514;DHT22;24282;48.400;10.808;2022-09-27T07:07:57;11.00;81.60
38514;DHT22;24282;48.400;10.808;2022-09-27T07:10:26;11.10;80.60
38514;DHT22;24282;48.400;10.808;2022-09-27T07:12:53;11.10;81.00
38514;DHT22;24282;48.400;10.808;2022-09-27T07:15:20;11.10;80.30
38514;DHT22;24282;48.400;10.808;2022-09-27T07:17:47;11.10;79.80
38514;DHT22;24282;48.400;10.808;2022-09-27T07:20:13;11.00;80.10
38514;DHT22;24282;48.400;10.808;2022-09-27T07:22:40;10.90;81.30
38514;DHT22;24282;48.400;10.808;2022-09-27T07:25:08;10.90;81.50
38514;DHT22;24282;48.400;10.808;2022-09-27T07:27:37;10.90;81.90
38514;DHT22;24282;48.400;10.808;2022-09-27T07:30:08;10.90;81.70
38514;DHT22;24282;48.400;10.808;2022-09-27T07:32:35;10.90;81.50
38514;DHT22;24282;48.400;10.808;2022-09-27T07:35:03;10.80;81.50
38514;DHT22;24282;48.400;10.808;2022-09-27T07:37:36;10.80;81.30
38514;DHT22;24282;48.400;10.808;2022-09-27T07:40:05;10.80;81.60
38514;DHT22;24282;48.400;10.808;2022-09-27T07:42:35;10.80;82.60
38514;DHT22;24282;48.400;10.808;2022-09-27T07:45:06;10.90;81.40
38514;DHT22;24282;48.400;10.808;2022-09-27T07:47:48;10.90;80.50
38514;DHT22;24282;48.400;10.808;2022-09-27T07:50:52;10.90;79.60
38514;DHT22;24282;48.400;10.808;2022-09-27T07:53:56;10.90;80.30
38514;DHT22;24282;48.400;10.808;2022-09-27T07:56:37;11.00;78.90
38514;DHT22;24282;48.400;10.808;2022-09-27T07:59:05;11.10;79.20
38514;DHT22;24282;48.400;10.808;2022-09-27T08:01:31;11.20;78.80
38514;DHT22;24282;48.400;10.808;2022-09-27T08:03:59;11.30;77.60
38514;DHT22;24282;48.400;10.808;2022-09-27T08:06:25;11.30;78.00
38514;DHT22;24282;48.400;10.808;2022-09-27T08:08:51;11.20;78.30
38514;DHT22;24282;48.400;10.808;2022-09-27T08:11:18;11.20;77.30
38514;DHT22;24282;48.400;10.808;2022-09-27T08:13:46;11.10;79.00
38514;DHT22;24282;48.400;10.808;2022-09-27T08:16:14;11.10;79.00
38514;DHT22;24282;48.400;10.808;2022-09-27T08:18:59;11.10;79.60
38514;DHT22;24282;48.400;10.808;2022-09-27T08:21:40;11.10;77.20
38514;DHT22;24282;48.400;10.808;2022-09-27T08:24:20;11.10;78.20
38514;DHT22;24282;48.400;10.808;2022-09-27T08:27:12;11.10;79.00
38514;DHT22;24282;48.400;10.808;2022-09-27T08:29:46;11.10;78.50
38514;DHT22;24282;48.400;10.808;2022-09-27T08:32:13;11.10;77.40
38514;DHT22;24282;48.400;10.808;2022-09-27T08:34:40;11.20;77.30
38514;DHT22;24282;48.400;10.808;2022-09-27T08:37:06;11.30;78.10
38514;DHT22;24282;48.400;10.808;2022-09-27T08:39:32;11.40;76.70
38514;DHT22;24282;48.400;10.808;2022-09-27T08:44:54;11.50;78.10
38514;DHT22;24282;48.400;10.808;2022-09-27T08:47:37;11.70;76.10
38514;DHT22;24282;48.400;10.808;2022-09-27T08:50:29;11.90;74.90
38514;DHT22;24282;48.400;10.808;2022-09-27T08:53:11;11.90;74.80
38514;DHT22;24282;48.400;10.808;2022-09-27T08:56:07;11.80;75.60
38514;DHT22;24282;48.400;10.808;2022-09-27T08:58:46;11.90;74.50
38514;DHT22;24282;48.400;10.808;2022-09-27T09:01:19;11.90;74.40
38514;DHT22;24282;48.400;10.808;2022-09-27T09:03:56;11.90;74.00
38514;DHT22;24282;48.400;10.808;2022-09-27T09:06:55;11.80;74.00
38514;DHT22;24282;48.400;10.808;2022-09-27T09:18:08;11.90;74.30
38514;DHT22;24282;48.400;10.808;2022-09-27T09:21:03;12.00;73.60
38514;DHT22;24282;48.400;10.808;2022-09-27T09:26:38;11.90;72.90
38514;DHT22;24282;48.400;10.808;2022-09-27T09:31:57;11.80;72.80
38514;DHT22;24282;48.400;10.808;2022-09-27T09:34:48;11.70;73.00
38514;DHT22;24282;48.400;10.808;2022-09-27T09:40:02;11.70;72.80
38514;DHT22;24282;48.400;10.808;2022-09-27T09:42:46;11.70;73.10
38514;DHT22;24282;48.400;10.808;2022-09-27T09:45:26;11.80;73.40
38514;DHT22;24282;48.400;10.808;2022-09-27T09:50:39;11.90;72.30
38514;DHT22;24282;48.400;10.808;2022-09-27T09:53:17;11.90;72.20
38514;DHT22;24282;48.400;10.808;2022-09-27T09:55:54;11.80;71.10
38514;DHT22;24282;48.400;10.808;2022-09-27T09:58:30;11.80;70.90
38514;DHT22;24282;48.400;10.808;2022-09-27T10:03:43;11.70;73.10
38514;DHT22;24282;48.400;10.808;2022-09-27T10:06:11;11.70;71.90
38514;DHT22;24282;48.400;10.808;2022-09-27T10:08:38;11.70;70.10
38514;DHT22;24282;48.400;10.808;2022-09-27T10:11:31;11.80;70.00
38514;DHT22;24282;48.400;10.808;2022-09-27T10:14:15;11.80;71.00
38514;DHT22;24282;48.400;10.808;2022-09-27T10:16:46;11.90;71.40
38514;DHT22;24282;48.400;10.808;2022-09-27T10:19:22;12.10;69.10
38514;DHT22;24282;48.400;10.808;2022-09-27T10:21:52;12.10;71.20
38514;DHT22;24282;48.400;10.808;2022-09-27T10:24:18;12.10;72.00
38514;DHT22;24282;48.400;10.808;2022-09-27T10:26:57;12.30;70.70
38514;DHT22;24282;48.400;10.808;2022-09-27T10:29:30;12.50;67.80
38514;DHT22;24282;48.400;10.808;2022-09-27T10:31:58;12.70;67.30
38514;DHT22;24282;48.400;10.808;2022-09-27T10:34:37;12.70;68.90
38514;DHT22;24282;48.400;10.808;2022-09-27T10:39:41;12.90;67.80
38514;DHT22;24282;48.400;10.808;2022-09-27T10:44:45;12.80;66.80
38514;DHT22;24282;48.400;10.808;2022-09-27T10:47:27;12.80;66.00
38514;DHT22;24282;48.400;10.808;2022-09-27T10:50:30;12.60;67.20
38514;DHT22;24282;48.400;10.808;2022-09-27T10:53:02;12.70;69.10
38514;DHT22;24282;48.400;10.808;2022-09-27T10:55:32;12.70;66.50
38514;DHT22;24282;48.400;10.808;2022-09-27T10:58:00;12.90;66.00
38514;DHT22;24282;48.400;10.808;2022-09-27T11:00:36;12.90;64.00
38514;DHT22;24282;48.400;10.808;2022-09-27T11:03:15;12.90;63.60
38514;DHT22;24282;48.400;10.808;2022-09-27T11:05:41;12.90;63.80
38514;DHT22;24282;48.400;10.808;2022-09-27T11:14:00;12.80;65.00
38514;DHT22;24282;48.400;10.808;2022-09-27T11:25:55;12.00;70.60
38514;DHT22;24282;48.400;10.808;2022-09-27T11:28:32;11.80;70.90
38514;DHT22;24282;48.400;10.808;2022-09-27T11:42:23;12.40;70.20
38514;DHT22;24282;48.400;10.808;2022-09-27T11:53:02;12.90;66.70
38514;DHT22;24282;48.400;10.808;2022-09-27T11:58:30;12.80;68.70
38514;DHT22;24282;48.400;10.808;2022-09-27T12:04:20;12.80;68.20
38514;DHT22;24282;48.400;10.808;2022-09-27T12:07:07;12.90;66.50
38514;DHT22;24282;48.400;10.808;2022-09-27T12:09:38;12.80;66.90
38514;DHT22;24282;48.400;10.808;2022-09-27T12:12:15;12.70;68.40
38514;DHT22;24282;48.400;10.808;2022-09-27T12:14:44;12.70;66.90
38514;DHT22;24282;48.400;10.808;2022-09-27T12:17:35;12.60;67.30
38514;DHT22;24282;48.400;10.808;2022-09-27T12:20:13;12.50;69.20
38514;DHT22;24282;48.400;10.808;2022-09-27T12:22:54;12.60;68.10
38514;DHT22;24282;48.400;10.808;2022-09-27T12:25:29;12.60;68.20
38514;DHT22;24282;48.400;10.808;2022-09-27T12:28:11;12.60;68.70
38514;DHT22;24282;48.400;10.808;2022-09-27T12:30:41;12.60;69.80
38514;DHT22;24282;48.400;10.808;2022-09-27T12:36:36;12.60;70.00
38514;DHT22;24282;48.400;10.808;2022-09-27T12:41:51;12.70;70.80
38514;DHT22;24282;48.400;10.808;2022-09-27T12:44:39;12.70;70.50
38514;DHT22;24282;48.400;10.808;2022-09-27T12:52:33;12.90;71.20
38514;DHT22;24282;48.400;10.808;2022-09-27T12:55:14;13.00;70.20
38514;DHT22;24282;48.400;10.808;2022-09-27T13:00:43;13.30;68.00
38514;DHT22;24282;48.400;10.808;2022-09-27T13:03:31;13.40;66.90
38514;DHT22;24282;48.400;10.808;2022-09-27T13:06:37;13.60;64.00
38514;DHT22;24282;48.400;10.808;2022-09-27T13:12:01;13.80;63.10
38514;DHT22;24282;48.400;10.808;2022-09-27T13:14:33;13.80;63.80
38514;DHT22;24282;48.400;10.808;2022-09-27T13:17:00;13.80;62.60
38514;DHT22;24282;48.400;10.808;2022-09-27T13:19:37;13.70;62.20
38514;DHT22;24282;48.400;10.808;2022-09-27T13:22:10;13.70;62.80
38514;DHT22;24282;48.400;10.808;2022-09-27T13:34:38;13.70;63.10
38514;DHT22;24282;48.400;10.808;2022-09-27T13:46:02;13.90;62.20
38514;DHT22;24282;48.400;10.808;2022-09-27T13:49:02;13.80;61.90
38514;DHT22;24282;48.400;10.808;2022-09-27T13:51:55;13.60;62.50
38514;DHT22;24282;48.400;10.808;2022-09-27T13:54:52;13.50;63.50
38514;DHT22;24282;48.400;10.808;2022-09-27T13:57:40;13.40;64.90
38514;DHT22;24282;48.400;10.808;2022-09-27T14:00:23;13.40;63.70
38514;DHT22;24282;48.400;10.808;2022-09-27T14:03:33;13.40;63.90
38514;DHT22;24282;48.400;10.808;2022-09-27T14:06:25;13.40;63.90
38514;DHT22;24282;48.400;10.808;2022-09-27T14:09:02;13.30;64.70
38514;DHT22;24282;48.400;10.808;2022-09-27T14:11:39;13.20;64.60
38514;DHT22;24282;48.400;10.808;2022-09-27T14:14:14;13.10;65.60
38514;DHT22;24282;48.400;10.808;2022-09-27T14:16:50;13.20;63.90
38514;DHT22;24282;48.400;10.808;2022-09-27T14:19:19;13.20;65.10
38514;DHT22;24282;48.400;10.808;2022-09-27T14:21:47;13.10;66.30
38514;DHT22;24282;48.400;10.808;2022-09-27T14:30:00;13.10;67.10
38514;DHT22;24282;48.400;10.808;2022-09-27T14:32:31;13.00;67.60
38514;DHT22;24282;48.400;10.808;2022-09-27T14:35:14;12.90;68.70
38514;DHT22;24282;48.400;10.808;2022-09-27T14:38:19;12.80;70.30
38514;DHT22;24282;48.400;10.808;2022-09-27T14:43:20;12.70;73.40
38514;DHT22;24282;48.400;10.808;2022-09-27T14:45:47;12.60;73.70
38514;DHT22;24282;48.400;10.808;2022-09-27T14:48:25;12.50;74.20
38514;DHT22;24282;48.400;10.808;2022-09-27T14:51:00;12.40;75.20
38514;DHT22;24282;48.400;10.808;2022-09-27T14:53:33;12.20;76.50
38514;DHT22;24282;48.400;10.808;2022-09-27T14:56:00;12.20;76.90
38514;DHT22;24282;48.400;10.808;2022-09-27T14:58:27;12.20;77.50
38514;DHT22;24282;48.400;10.808;2022-09-27T15:00:55;12.20;77.30
38514;DHT22;24282;48.400;10.808;2022-09-27T15:03:31;12.10;76.40
38514;DHT22;24282;48.400;10.808;2022-09-27T15:05:58;12.00;77.20
38514;DHT22;24282;48.400;10.808;2022-09-27T15:08:28;12.00;76.10
38514;DHT22;24282;48.400;10.808;2022-09-27T15:11:03;11.90;75.90
38514;DHT22;24282;48.400;10.808;2022-09-27T15:13:31;11.70;75.90
38514;DHT22;24282;48.400;10.808;2022-09-27T15:15:58;11.70;77.00
38514;DHT22;24282;48.400;10.808;2022-09-27T15:20:57;11.60;76.70
38514;DHT22;24282;48.400;10.808;2022-09-27T15:23:29;11.50;77.10
38514;DHT22;24282;48.400;10.808;2022-09-27T15:26:17;11.40;78.10
38514;DHT22;24282;48.400;10.808;2022-09-27T15:28:48;11.30;78.00
38514;DHT22;24282;48.400;10.808;2022-09-27T15:31:15;11.20;77.80
38514;DHT22;24282;48.400;10.808;2022-09-27T15:33:41;11.20;79.00
38514;DHT22;24282;48.400;10.808;2022-09-27T15:36:09;11.20;79.00
38514;DHT22;24282;48.400;10.808;2022-09-27T15:38:43;11.20;79.70
38514;DHT22;24282;48.400;10.808;2022-09-27T15:41:17;11.30;78.70
38514;DHT22;24282;48.400;10.808;2022-09-27T15:43:51;11.30;77.90
38514;DHT22;24282;48.400;10.808;2022-09-27T15:46:46;11.20;78.50
38514;DHT22;24282;48.400;10.808;2022-09-27T15:51:49;11.20;79.10
38514;DHT22;24282;48.400;10.808;2022-09-27T15:54:20;11.20;78.60
38514;DHT22;24282;48.400;10.808;2022-09-27T15:56:50;11.20;78.80
38514;DHT22;24282;48.400;10.808;2022-09-27T15:59:20;11.10;79.90
38514;DHT22;24282;48.400;10.808;2022-09-27T16:01:47;11.20;80.30
38514;DHT22;24282;48.400;10.808;2022-09-27T16:04:13;11.10;79.20
38514;DHT22;24282;48.400;10.808;2022-09-27T16:06:39;11.10;79.90
38514;DHT22;24282;48.400;10.808;2022-09-27T16:09:16;11.00;81.10
38514;DHT22;24282;48.400;10.808;2022-09-27T16:11:48;11.10;80.80
38514;DHT22;24282;48.400;10.808;2022-09-27T16:14:15;11.10;80.10
38514;DHT22;24282;48.400;10.808;2022-09-27T16:16:44;11.00;80.20
38514;DHT22;24282;48.400;10.808;2022-09-27T16:19:11;11.00;78.80
38514;DHT22;24282;48.400;10.808;2022-09-27T16:21:37;11.00;79.60
38514;DHT22;24282;48.400;10.808;2022-09-27T16:24:03;11.00;79.60
38514;DHT22;24282;48.400;10.808;2022-09-27T16:26:29;10.90;80.30
38514;DHT22;24282;48.400;10.808;2022-09-27T16:28:55;10.90;80.10
38514;DHT22;24282;48.400;10.808;2022-09-27T16:31:21;10.80;80.70
38514;DHT22;24282;48.400;10.808;2022-09-27T16:33:47;10.80;80.90
38514;DHT22;24282;48.400;10.808;2022-09-27T16:36:15;10.70;79.80
38514;DHT22;24282;48.400;10.808;2022-09-27T16:38:48;10.50;80.50
38514;DHT22;24282;48.400;10.808;2022-09-27T16:41:14;10.60;79.10
38514;DHT22;24282;48.400;10.808;2022-09-27T16:43:40;10.50;79.70
38514;DHT22;24282;48.400;10.808;2022-09-27T16:46:07;10.40;80.50
38514;DHT22;24282;48.400;10.808;2022-09-27T16:48:36;10.40;81.20
38514;DHT22;24282;48.400;10.808;2022-09-27T16:51:10;10.40;81.80
38514;DHT22;24282;48.400;10.808;2022-09-27T16:53:55;10.30;82.20
38514;DHT22;24282;48.400;10.808;2022-09-27T16:56:21;10.30;82.50
38514;DHT22;24282;48.400;10.808;2022-09-27T16:58:47;10.30;82.40
38514;DHT22;24282;48.400;10.808;2022-09-27T17:01:13;10.30;81.10
38514;DHT22;24282;48.400;10.808;2022-09-27T17:03:47;10.20;81.30
38514;DHT22;24282;48.400;10.808;2022-09-27T17:06:14;10.20;81.40
38514;DHT22;24282;48.400;10.808;2022-09-27T17:08:40;10.10;81.30
38514;DHT22;24282;48.400;10.808;2022-09-27T17:11:06;10.10;82.00
38514;DHT22;24282;48.400;10.808;2022-09-27T17:13:32;10.10;81.70
38514;DHT22;24282;48.400;10.808;2022-09-27T17:16:01;10.10;81.90
38514;DHT22;24282;48.400;10.808;2022-09-27T17:18:27;10.00;81.70
38514;DHT22;24282;48.400;10.808;2022-09-27T17:20:59;10.00;81.40
38514;DHT22;24282;48.400;10.808;2022-09-27T17:23:25;10.00;81.70
38514;DHT22;24282;48.400;10.808;2022-09-27T17:25:51;9.90;81.50
38514;DHT22;24282;48.400;10.808;2022-09-27T17:28:21;9.90;81.40
38514;DHT22;24282;48.400;10.808;2022-09-27T17:30:47;9.90;81.10
38514;DHT22;24282;48.400;10.808;2022-09-27T17:33:13;9.90;81.60
38514;DHT22;24282;48.400;10.808;2022-09-27T17:35:38;9.90;82.10
38514;DHT22;24282;48.400;10.808;2022-09-27T17:38:04;9.80;81.70
38514;DHT22;24282;48.400;10.808;2022-09-27T17:40:30;9.80;81.50
38514;DHT22;24282;48.400;10.808;2022-09-27T17:42:56;9.80;81.10
38514;DHT22;24282;48.400;10.808;2022-09-27T17:45:22;9.80;81.30
38514;DHT22;24282;48.400;10.808;2022-09-27T17:47:48;9.80;81.50
38514;DHT22;24282;48.400;10.808;2022-09-27T17:50:32;9.80;82.20
38514;DHT22;24282;48.400;10.808;2022-09-27T17:52:58;9.80;82.10
38514;DHT22;24282;48.400;10.808;2022-09-27T17:55:24;9.80;81.90
38514;DHT22;24282;48.400;10.808;2022-09-27T17:57:50;9.70;82.20
38514;DHT22;24282;48.400;10.808;2022-09-27T18:00:17;9.70;81.80
38514;DHT22;24282;48.400;10.808;2022-09-27T18:02:43;9.70;82.20
38514;DHT22;24282;48.400;10.808;2022-09-27T18:05:10;9.70;82.10
38514;DHT22;24282;48.400;10.808;2022-09-27T18:07:35;9.70;82.30
38514;DHT22;24282;48.400;10.808;2022-09-27T18:10:02;9.70;82.20
38514;DHT22;24282;48.400;10.808;2022-09-27T18:12:28;9.70;82.00
38514;DHT22;24282;48.400;10.808;2022-09-27T18:15:00;9.70;81.90
38514;DHT22;24282;48.400;10.808;2022-09-27T18:17:26;9.70;82.30
38514;DHT22;24282;48.400;10.808;2022-09-27T18:19:53;9.70;81.90
38514;DHT22;24282;48.400;10.808;2022-09-27T18:22:22;9.80;81.50
38514;DHT22;24282;48.400;10.808;2022-09-27T18:24:50;9.70;81.50
38514;DHT22;24282;48.400;10.808;2022-09-27T18:27:16;9.70;81.90
38514;DHT22;24282;48.400;10.808;2022-09-27T18:29:44;9.70;81.40
38514;DHT22;24282;48.400;10.808;2022-09-27T18:32:10;9.70;81.50
38514;DHT22;24282;48.400;10.808;2022-09-27T18:34:36;9.70;81.30
38514;DHT22;24282;48.400;10.808;2022-09-27T18:37:01;9.60;82.10
38514;DHT22;24282;48.400;10.808;2022-09-27T18:39:27;9.60;82.50